Airfield :
LOGIN :

Register | Disclaimer

   EN    FR    IT 

 










Legend :    VFR   Marginal VFR   IFR   Intensive IFR   Very Intensive IFR
Visi :
Ceiling :
>= 8 km
>= 3000ft
5 to 8 km
1000 to 3000 ft
1500m to 5 km
500 to 1000 ft
800 to 1500m
200 to 500 ft
< 800m
< 200 ft
Symbols :   Thunderstorms  Fog  Heavy snow  Heavy precipitations  Wind > 20 kt
SIGMETs :     Misc.  Thunderstorms  Icing  Turbulence  Mountain Waves  Volcanic Ashes






- Airport Elevation : 17 ft
- IATA code : GRQ


EHGG - Groningen Eelde

CURRENT METAR :
  • 182055Z AUTO 29001KT 0400 R05/0350N FG NCD 07/07 Q1014

EXPIRED METARs :
  • 182025Z AUTO 30003KT 9999 FEW020 08/07 Q1014 NOSIG
  • 181955Z AUTO 32002KT 9999 SCT018 BKN025 BKN028 10/08 Q1014 NOSIG
  • 181925Z AUTO 34002KT 9999 FEW015CB SCT021 BKN025 10/08 Q1013 NOSIG
  • 181855Z AUTO 33005KT 9999 FEW015CB SCT020 BKN023 BKN028 11/08 Q1013 NOSIG
  • 181825Z AUTO 32007KT 290V360 9999 FEW015CB BKN020 BKN023 OVC027 12/08 Q1013 NOSIG

TAF COR TAF EHGG
Valid from the 18 at 20:00 until the 20 at 00:00 UTC


182053Z 1820/1924 31007KT 2000 MIFG BR NSC
PROB40 1820/1905 0400 FG VV001
BECMG 1905/1907 BKN008
BECMG 1907/1909 9999 NSW SCT018
TEMPO 1910/1917 6000 SHRA FEW018CB
PROB40
TEMPO 1911/1916 26017G27KT 2500 TSRAGS SCT018CB BKN025
PROB30 1919/1924 6000 BKN012



MET'MAP, your aeronautical weather chart ! - Copyright ORBIFLY December 2007 - Disclaimer

ORBIFLY MET'MAP TEAM :

Programming & Development : Alexandra Zaïnal
Concept & original design : Baudouin d'Aumeries
Assistance for programming : Marc-Olivier Méhu
Technical & hardware support : Manuel Goepfert

Contact : metmap@orbifly.com




SOURCES & CREDITS :

   NOAA